sensor_id;sensor_type;location;lat;lon;timestamp;temperature;humidity
5842;DHT22;2947;52.276;9.946;2023-03-03T00:01:28;0.90;99.90
5842;DHT22;2947;52.276;9.946;2023-03-03T00:03:55;0.90;99.90
5842;DHT22;2947;52.276;9.946;2023-03-03T00:06:21;0.90;99.90
5842;DHT22;2947;52.276;9.946;2023-03-03T00:08:47;1.00;99.90
5842;DHT22;2947;52.276;9.946;2023-03-03T00:11:12;1.00;99.90
5842;DHT22;2947;52.276;9.946;2023-03-03T00:13:55;1.00;99.90
5842;DHT22;2947;52.276;9.946;2023-03-03T00:16:31;0.90;99.90
5842;DHT22;2947;52.276;9.946;2023-03-03T00:19:00;0.80;99.90
5842;DHT22;2947;52.276;9.946;2023-03-03T00:21:28;0.70;99.90
5842;DHT22;2947;52.276;9.946;2023-03-03T00:26:40;0.70;99.90
5842;DHT22;2947;52.276;9.946;2023-03-03T00:31:51;0.80;99.90
5842;DHT22;2947;52.276;9.946;2023-03-03T00:36:43;0.70;99.90
5842;DHT22;2947;52.276;9.946;2023-03-03T00:39:21;0.60;99.90
5842;DHT22;2947;52.276;9.946;2023-03-03T00:41:48;0.60;99.90
5842;DHT22;2947;52.276;9.946;2023-03-03T00:44:43;0.50;99.90
5842;DHT22;2947;52.276;9.946;2023-03-03T00:47:36;0.50;99.90
5842;DHT22;2947;52.276;9.946;2023-03-03T00:52:35;0.40;99.90
5842;DHT22;2947;52.276;9.946;2023-03-03T00:55:02;0.50;99.90
5842;DHT22;2947;52.276;9.946;2023-03-03T00:57:29;0.50;99.90
5842;DHT22;2947;52.276;9.946;2023-03-03T00:59:54;0.40;99.90
5842;DHT22;2947;52.276;9.946;2023-03-03T01:02:20;0.50;99.90
5842;DHT22;2947;52.276;9.946;2023-03-03T01:04:49;0.50;99.90
5842;DHT22;2947;52.276;9.946;2023-03-03T01:07:16;0.50;99.90
5842;DHT22;2947;52.276;9.946;2023-03-03T01:09:43;0.40;99.90
5842;DHT22;2947;52.276;9.946;2023-03-03T01:12:09;0.40;99.90
5842;DHT22;2947;52.276;9.946;2023-03-03T01:14:36;0.30;99.90
5842;DHT22;2947;52.276;9.946;2023-03-03T01:17:02;0.40;99.90
5842;DHT22;2947;52.276;9.946;2023-03-03T01:19:28;0.40;99.90
5842;DHT22;2947;52.276;9.946;2023-03-03T01:21:53;0.40;99.90
5842;DHT22;2947;52.276;9.946;2023-03-03T01:24:20;0.50;99.90
5842;DHT22;2947;52.276;9.946;2023-03-03T01:26:45;0.50;99.90
5842;DHT22;2947;52.276;9.946;2023-03-03T01:29:11;0.50;99.90
5842;DHT22;2947;52.276;9.946;2023-03-03T01:31:37;0.40;99.90
5842;DHT22;2947;52.276;9.946;2023-03-03T01:34:04;0.40;99.90
5842;DHT22;2947;52.276;9.946;2023-03-03T01:36:31;0.40;99.90
5842;DHT22;2947;52.276;9.946;2023-03-03T01:38:58;0.30;99.90
5842;DHT22;2947;52.276;9.946;2023-03-03T01:41:28;0.30;99.90
5842;DHT22;2947;52.276;9.946;2023-03-03T01:43:57;0.30;99.90
5842;DHT22;2947;52.276;9.946;2023-03-03T01:48:49;0.30;99.90
5842;DHT22;2947;52.276;9.946;2023-03-03T01:51:23;0.40;99.90
5842;DHT22;2947;52.276;9.946;2023-03-03T01:53:56;0.40;99.90
5842;DHT22;2947;52.276;9.946;2023-03-03T01:56:27;0.40;99.90
5842;DHT22;2947;52.276;9.946;2023-03-03T01:58:59;0.40;99.90
5842;DHT22;2947;52.276;9.946;2023-03-03T02:01:28;0.40;99.90
5842;DHT22;2947;52.276;9.946;2023-03-03T02:03:56;0.30;99.90
5842;DHT22;2947;52.276;9.946;2023-03-03T02:06:32;0.30;99.90
5842;DHT22;2947;52.276;9.946;2023-03-03T02:11:54;0.30;99.90
5842;DHT22;2947;52.276;9.946;2023-03-03T02:14:24;0.20;99.90
5842;DHT22;2947;52.276;9.946;2023-03-03T02:16:50;0.10;99.90
5842;DHT22;2947;52.276;9.946;2023-03-03T02:20:02;0.10;99.90
5842;DHT22;2947;52.276;9.946;2023-03-03T02:22:48;0.10;99.90
5842;DHT22;2947;52.276;9.946;2023-03-03T02:28:29;0.00;99.90
5842;DHT22;2947;52.276;9.946;2023-03-03T02:30:57;0.10;99.90
5842;DHT22;2947;52.276;9.946;2023-03-03T02:33:24;0.10;99.90
5842;DHT22;2947;52.276;9.946;2023-03-03T02:35:51;0.20;99.90
5842;DHT22;2947;52.276;9.946;2023-03-03T02:38:27;0.20;99.90
5842;DHT22;2947;52.276;9.946;2023-03-03T02:40:59;0.20;99.90
5842;DHT22;2947;52.276;9.946;2023-03-03T02:44:04;0.20;99.90
5842;DHT22;2947;52.276;9.946;2023-03-03T02:46:39;0.20;99.90
5842;DHT22;2947;52.276;9.946;2023-03-03T02:49:08;0.20;99.90
5842;DHT22;2947;52.276;9.946;2023-03-03T02:51:35;0.20;99.90
5842;DHT22;2947;52.276;9.946;2023-03-03T02:54:02;0.10;99.90
5842;DHT22;2947;52.276;9.946;2023-03-03T02:56:29;0.20;99.90
5842;DHT22;2947;52.276;9.946;2023-03-03T02:58:55;0.20;99.90
5842;DHT22;2947;52.276;9.946;2023-03-03T03:01:21;0.20;99.90
5842;DHT22;2947;52.276;9.946;2023-03-03T03:03:47;0.20;99.90
5842;DHT22;2947;52.276;9.946;2023-03-03T03:06:13;0.20;99.90
5842;DHT22;2947;52.276;9.946;2023-03-03T03:08:38;0.30;99.90
5842;DHT22;2947;52.276;9.946;2023-03-03T03:11:04;0.30;99.90
5842;DHT22;2947;52.276;9.946;2023-03-03T03:13:31;0.30;99.90
5842;DHT22;2947;52.276;9.946;2023-03-03T03:15:58;0.40;99.90
5842;DHT22;2947;52.276;9.946;2023-03-03T03:18:24;0.40;99.90
5842;DHT22;2947;52.276;9.946;2023-03-03T03:20:50;0.50;99.90
5842;DHT22;2947;52.276;9.946;2023-03-03T03:23:16;0.50;99.90
5842;DHT22;2947;52.276;9.946;2023-03-03T03:25:42;0.50;99.90
5842;DHT22;2947;52.276;9.946;2023-03-03T03:28:11;0.40;99.90
5842;DHT22;2947;52.276;9.946;2023-03-03T03:30:38;0.40;99.90
5842;DHT22;2947;52.276;9.946;2023-03-03T03:33:04;0.40;99.90
5842;DHT22;2947;52.276;9.946;2023-03-03T03:35:32;0.40;99.90
5842;DHT22;2947;52.276;9.946;2023-03-03T03:37:58;0.40;99.90
5842;DHT22;2947;52.276;9.946;2023-03-03T03:40:24;0.50;99.90
5842;DHT22;2947;52.276;9.946;2023-03-03T03:42:51;0.50;99.90
5842;DHT22;2947;52.276;9.946;2023-03-03T03:45:18;0.60;99.90
5842;DHT22;2947;52.276;9.946;2023-03-03T03:47:44;0.60;99.90
5842;DHT22;2947;52.276;9.946;2023-03-03T03:50:10;0.60;99.90
5842;DHT22;2947;52.276;9.946;2023-03-03T03:52:36;0.60;99.90
5842;DHT22;2947;52.276;9.946;2023-03-03T03:55:03;0.70;99.90
5842;DHT22;2947;52.276;9.946;2023-03-03T03:57:29;0.70;99.90
5842;DHT22;2947;52.276;9.946;2023-03-03T03:59:55;0.70;99.90
5842;DHT22;2947;52.276;9.946;2023-03-03T04:02:20;0.70;99.90
5842;DHT22;2947;52.276;9.946;2023-03-03T04:04:46;0.70;99.90
5842;DHT22;2947;52.276;9.946;2023-03-03T04:07:12;0.70;99.90
5842;DHT22;2947;52.276;9.946;2023-03-03T04:09:38;0.70;99.90
5842;DHT22;2947;52.276;9.946;2023-03-03T04:12:04;0.70;99.90
5842;DHT22;2947;52.276;9.946;2023-03-03T04:14:29;0.70;99.90
5842;DHT22;2947;52.276;9.946;2023-03-03T04:16:55;0.70;99.90
5842;DHT22;2947;52.276;9.946;2023-03-03T04:19:21;0.60;99.90
5842;DHT22;2947;52.276;9.946;2023-03-03T04:21:47;0.60;99.90
5842;DHT22;2947;52.276;9.946;2023-03-03T04:24:13;0.60;99.90
5842;DHT22;2947;52.276;9.946;2023-03-03T04:26:39;0.50;99.90
5842;DHT22;2947;52.276;9.946;2023-03-03T04:29:05;0.60;99.90
5842;DHT22;2947;52.276;9.946;2023-03-03T04:31:30;0.60;99.90
5842;DHT22;2947;52.276;9.946;2023-03-03T04:33:56;0.60;99.90
5842;DHT22;2947;52.276;9.946;2023-03-03T04:36:22;0.60;99.90
5842;DHT22;2947;52.276;9.946;2023-03-03T04:38:48;0.60;99.90
5842;DHT22;2947;52.276;9.946;2023-03-03T04:41:14;0.60;99.90
5842;DHT22;2947;52.276;9.946;2023-03-03T04:43:40;0.60;99.90
5842;DHT22;2947;52.276;9.946;2023-03-03T04:46:06;0.70;99.90
5842;DHT22;2947;52.276;9.946;2023-03-03T04:48:32;0.70;99.90
5842;DHT22;2947;52.276;9.946;2023-03-03T04:50:57;0.70;99.90
5842;DHT22;2947;52.276;9.946;2023-03-03T04:53:23;0.70;99.90
5842;DHT22;2947;52.276;9.946;2023-03-03T04:55:53;0.60;99.90
5842;DHT22;2947;52.276;9.946;2023-03-03T04:58:19;0.70;99.90
5842;DHT22;2947;52.276;9.946;2023-03-03T05:01:03;0.70;99.90
5842;DHT22;2947;52.276;9.946;2023-03-03T05:03:28;0.70;99.90
5842;DHT22;2947;52.276;9.946;2023-03-03T05:05:54;0.70;99.90
5842;DHT22;2947;52.276;9.946;2023-03-03T05:08:20;0.80;99.90
5842;DHT22;2947;52.276;9.946;2023-03-03T05:10:50;0.80;99.90
5842;DHT22;2947;52.276;9.946;2023-03-03T05:13:17;0.80;99.90
5842;DHT22;2947;52.276;9.946;2023-03-03T05:15:44;0.80;99.90
5842;DHT22;2947;52.276;9.946;2023-03-03T05:18:14;0.80;99.90
5842;DHT22;2947;52.276;9.946;2023-03-03T05:20:39;0.80;99.90
5842;DHT22;2947;52.276;9.946;2023-03-03T05:23:06;0.90;99.90
5842;DHT22;2947;52.276;9.946;2023-03-03T05:25:32;0.80;99.90
5842;DHT22;2947;52.276;9.946;2023-03-03T05:27:57;0.80;99.90
5842;DHT22;2947;52.276;9.946;2023-03-03T05:30:23;0.90;99.90
5842;DHT22;2947;52.276;9.946;2023-03-03T05:32:49;0.90;99.90
5842;DHT22;2947;52.276;9.946;2023-03-03T05:35:15;1.00;99.90
5842;DHT22;2947;52.276;9.946;2023-03-03T05:37:40;1.00;99.90
5842;DHT22;2947;52.276;9.946;2023-03-03T05:40:12;1.00;99.90
5842;DHT22;2947;52.276;9.946;2023-03-03T05:42:38;1.00;99.90
5842;DHT22;2947;52.276;9.946;2023-03-03T05:45:04;1.10;99.90
5842;DHT22;2947;52.276;9.946;2023-03-03T05:47:30;1.10;99.90
5842;DHT22;2947;52.276;9.946;2023-03-03T05:49:58;1.10;99.90
5842;DHT22;2947;52.276;9.946;2023-03-03T05:52:25;1.10;99.90
5842;DHT22;2947;52.276;9.946;2023-03-03T05:54:51;1.10;99.90
5842;DHT22;2947;52.276;9.946;2023-03-03T05:57:18;1.10;99.90
5842;DHT22;2947;52.276;9.946;2023-03-03T05:59:44;1.10;99.90
5842;DHT22;2947;52.276;9.946;2023-03-03T06:02:09;1.10;99.90
5842;DHT22;2947;52.276;9.946;2023-03-03T06:04:35;1.10;99.90
5842;DHT22;2947;52.276;9.946;2023-03-03T06:07:01;1.10;99.90
5842;DHT22;2947;52.276;9.946;2023-03-03T06:09:27;1.10;99.90
5842;DHT22;2947;52.276;9.946;2023-03-03T06:11:52;1.10;99.90
5842;DHT22;2947;52.276;9.946;2023-03-03T06:14:19;1.10;99.90
5842;DHT22;2947;52.276;9.946;2023-03-03T06:16:46;1.10;99.90
5842;DHT22;2947;52.276;9.946;2023-03-03T06:19:12;1.00;99.90
5842;DHT22;2947;52.276;9.946;2023-03-03T06:21:39;1.10;99.90
5842;DHT22;2947;52.276;9.946;2023-03-03T06:24:05;1.10;99.90
5842;DHT22;2947;52.276;9.946;2023-03-03T06:26:32;1.10;99.90
5842;DHT22;2947;52.276;9.946;2023-03-03T06:28:58;1.10;99.90
5842;DHT22;2947;52.276;9.946;2023-03-03T06:31:24;1.20;99.90
5842;DHT22;2947;52.276;9.946;2023-03-03T06:33:50;1.20;99.90
5842;DHT22;2947;52.276;9.946;2023-03-03T06:36:17;1.20;99.90
5842;DHT22;2947;52.276;9.946;2023-03-03T06:38:43;1.20;99.90
5842;DHT22;2947;52.276;9.946;2023-03-03T06:41:09;1.10;99.90
5842;DHT22;2947;52.276;9.946;2023-03-03T06:43:36;1.10;99.90
5842;DHT22;2947;52.276;9.946;2023-03-03T06:46:05;1.10;99.90
5842;DHT22;2947;52.276;9.946;2023-03-03T06:48:32;1.10;99.90
5842;DHT22;2947;52.276;9.946;2023-03-03T06:50:59;1.10;99.90
5842;DHT22;2947;52.276;9.946;2023-03-03T06:53:27;1.10;99.90
5842;DHT22;2947;52.276;9.946;2023-03-03T06:55:57;1.00;99.90
5842;DHT22;2947;52.276;9.946;2023-03-03T06:58:25;1.00;99.90
5842;DHT22;2947;52.276;9.946;2023-03-03T07:00:58;1.00;99.90
5842;DHT22;2947;52.276;9.946;2023-03-03T07:03:35;1.00;99.90
5842;DHT22;2947;52.276;9.946;2023-03-03T07:06:01;1.00;99.90
5842;DHT22;2947;52.276;9.946;2023-03-03T07:08:39;1.00;99.90
5842;DHT22;2947;52.276;9.946;2023-03-03T07:11:10;1.00;99.90
5842;DHT22;2947;52.276;9.946;2023-03-03T07:13:39;1.10;99.90
5842;DHT22;2947;52.276;9.946;2023-03-03T07:16:11;1.10;99.90
5842;DHT22;2947;52.276;9.946;2023-03-03T07:18:52;1.10;99.90
5842;DHT22;2947;52.276;9.946;2023-03-03T07:21:21;1.10;99.90
5842;DHT22;2947;52.276;9.946;2023-03-03T07:23:49;1.10;99.90
5842;DHT22;2947;52.276;9.946;2023-03-03T07:26:31;1.20;99.90
5842;DHT22;2947;52.276;9.946;2023-03-03T07:29:27;1.30;99.90
5842;DHT22;2947;52.276;9.946;2023-03-03T07:31:59;1.20;99.90
5842;DHT22;2947;52.276;9.946;2023-03-03T07:34:37;1.20;99.90
5842;DHT22;2947;52.276;9.946;2023-03-03T07:37:31;1.30;99.90
5842;DHT22;2947;52.276;9.946;2023-03-03T07:40:00;1.30;99.90
5842;DHT22;2947;52.276;9.946;2023-03-03T07:42:40;1.30;99.90
5842;DHT22;2947;52.276;9.946;2023-03-03T07:48:35;1.30;99.90
5842;DHT22;2947;52.276;9.946;2023-03-03T07:51:27;1.30;99.90
5842;DHT22;2947;52.276;9.946;2023-03-03T07:54:17;1.30;99.90
5842;DHT22;2947;52.276;9.946;2023-03-03T07:57:18;1.40;99.90
5842;DHT22;2947;52.276;9.946;2023-03-03T07:59:49;1.40;99.90
5842;DHT22;2947;52.276;9.946;2023-03-03T08:02:31;1.40;99.90
5842;DHT22;2947;52.276;9.946;2023-03-03T08:07:54;1.40;99.90
5842;DHT22;2947;52.276;9.946;2023-03-03T08:10:35;1.40;99.90
5842;DHT22;2947;52.276;9.946;2023-03-03T08:16:03;1.50;99.90
5842;DHT22;2947;52.276;9.946;2023-03-03T08:18:47;1.50;99.90
5842;DHT22;2947;52.276;9.946;2023-03-03T08:21:17;1.50;99.90
5842;DHT22;2947;52.276;9.946;2023-03-03T08:23:44;1.50;99.90
5842;DHT22;2947;52.276;9.946;2023-03-03T08:26:10;1.50;99.90
5842;DHT22;2947;52.276;9.946;2023-03-03T08:28:39;1.50;99.90
5842;DHT22;2947;52.276;9.946;2023-03-03T08:31:05;1.50;99.90
5842;DHT22;2947;52.276;9.946;2023-03-03T08:33:31;1.50;99.90
5842;DHT22;2947;52.276;9.946;2023-03-03T08:35:57;1.60;99.90
5842;DHT22;2947;52.276;9.946;2023-03-03T08:38:22;1.70;99.90
5842;DHT22;2947;52.276;9.946;2023-03-03T08:40:49;1.60;99.90
5842;DHT22;2947;52.276;9.946;2023-03-03T08:43:15;1.60;99.90
5842;DHT22;2947;52.276;9.946;2023-03-03T08:45:46;1.60;99.90
5842;DHT22;2947;52.276;9.946;2023-03-03T08:48:16;1.60;99.90
5842;DHT22;2947;52.276;9.946;2023-03-03T08:50:42;1.60;99.90
5842;DHT22;2947;52.276;9.946;2023-03-03T08:53:09;1.60;99.90
5842;DHT22;2947;52.276;9.946;2023-03-03T08:55:35;1.60;99.90
5842;DHT22;2947;52.276;9.946;2023-03-03T08:58:01;1.60;99.90
5842;DHT22;2947;52.276;9.946;2023-03-03T09:00:27;1.60;99.90
5842;DHT22;2947;52.276;9.946;2023-03-03T09:02:54;1.60;99.90
5842;DHT22;2947;52.276;9.946;2023-03-03T09:05:21;1.70;99.90
5842;DHT22;2947;52.276;9.946;2023-03-03T09:07:48;1.60;99.90
5842;DHT22;2947;52.276;9.946;2023-03-03T09:10:18;1.70;99.90
5842;DHT22;2947;52.276;9.946;2023-03-03T09:12:52;1.70;99.90
5842;DHT22;2947;52.276;9.946;2023-03-03T09:15:25;1.80;99.90
5842;DHT22;2947;52.276;9.946;2023-03-03T09:20:38;1.90;99.90
5842;DHT22;2947;52.276;9.946;2023-03-03T09:23:31;1.90;99.90
5842;DHT22;2947;52.276;9.946;2023-03-03T09:28:36;2.10;99.90
5842;DHT22;2947;52.276;9.946;2023-03-03T09:31:02;2.20;99.90
5842;DHT22;2947;52.276;9.946;2023-03-03T09:33:46;2.20;99.90
5842;DHT22;2947;52.276;9.946;2023-03-03T09:36:27;2.30;99.90
5842;DHT22;2947;52.276;9.946;2023-03-03T09:38:55;2.20;99.90
5842;DHT22;2947;52.276;9.946;2023-03-03T09:47:46;2.20;99.90
5842;DHT22;2947;52.276;9.946;2023-03-03T09:55:48;2.50;99.90
5842;DHT22;2947;52.276;9.946;2023-03-03T09:58:42;2.40;99.90
5842;DHT22;2947;52.276;9.946;2023-03-03T10:15:55;2.70;99.90
5842;DHT22;2947;52.276;9.946;2023-03-03T10:26:49;2.90;99.90
5842;DHT22;2947;52.276;9.946;2023-03-03T10:32:30;2.90;99.90
5842;DHT22;2947;52.276;9.946;2023-03-03T10:54:42;3.20;99.90
5842;DHT22;2947;52.276;9.946;2023-03-03T11:00:56;3.40;98.50
5842;DHT22;2947;52.276;9.946;2023-03-03T11:12:17;3.50;50.50
5842;DHT22;2947;52.276;9.946;2023-03-03T11:15:28;3.60;73.20
5842;DHT22;2947;52.276;9.946;2023-03-03T11:18:15;3.60;40.50
5842;DHT22;2947;52.276;9.946;2023-03-03T11:23:49;3.70;54.00
5842;DHT22;2947;52.276;9.946;2023-03-03T11:31:54;3.80;36.10
5842;DHT22;2947;52.276;9.946;2023-03-03T11:34:49;3.80;23.10
5842;DHT22;2947;52.276;9.946;2023-03-03T11:38:32;3.90;25.90
5842;DHT22;2947;52.276;9.946;2023-03-03T11:40:54;3.90;29.80
5842;DHT22;2947;52.276;9.946;2023-03-03T11:43:37;4.00;11.70
5842;DHT22;2947;52.276;9.946;2023-03-03T11:46:24;3.90;14.90
5842;DHT22;2947;52.276;9.946;2023-03-03T11:49:40;4.10;22.50
5842;DHT22;2947;52.276;9.946;2023-03-03T11:55:28;4.20;1.90
5842;DHT22;2947;52.276;9.946;2023-03-03T12:01:13;4.30;1.00
5842;DHT22;2947;52.276;9.946;2023-03-03T12:03:56;4.30;1.00
5842;DHT22;2947;52.276;9.946;2023-03-03T12:06:32;4.40;1.00
5842;DHT22;2947;52.276;9.946;2023-03-03T12:09:47;4.50;1.00
5842;DHT22;2947;52.276;9.946;2023-03-03T12:12:35;4.60;1.00
5842;DHT22;2947;52.276;9.946;2023-03-03T12:20:48;4.40;1.00
5842;DHT22;2947;52.276;9.946;2023-03-03T12:26:46;4.40;1.00
5842;DHT22;2947;52.276;9.946;2023-03-03T12:29:42;4.50;1.00
5842;DHT22;2947;52.276;9.946;2023-03-03T12:35:41;4.50;1.00
5842;DHT22;2947;52.276;9.946;2023-03-03T12:41:42;4.60;99.90
5842;DHT22;2947;52.276;9.946;2023-03-03T12:44:40;4.70;48.70
5842;DHT22;2947;52.276;9.946;2023-03-03T12:47:37;4.80;1.00
5842;DHT22;2947;52.276;9.946;2023-03-03T13:00:13;4.90;99.90
5842;DHT22;2947;52.276;9.946;2023-03-03T13:03:04;5.00;99.90
5842;DHT22;2947;52.276;9.946;2023-03-03T13:06:16;5.00;99.90
5842;DHT22;2947;52.276;9.946;2023-03-03T13:15:27;4.80;99.90
5842;DHT22;2947;52.276;9.946;2023-03-03T13:18:15;4.70;1.00
5842;DHT22;2947;52.276;9.946;2023-03-03T13:20:56;4.70;1.00
5842;DHT22;2947;52.276;9.946;2023-03-03T13:26:52;4.90;99.90
5842;DHT22;2947;52.276;9.946;2023-03-03T13:29:32;5.00;99.90
5842;DHT22;2947;52.276;9.946;2023-03-03T13:32:19;5.10;99.90
5842;DHT22;2947;52.276;9.946;2023-03-03T13:37:53;4.80;99.90
5842;DHT22;2947;52.276;9.946;2023-03-03T13:45:53;4.70;99.90
5842;DHT22;2947;52.276;9.946;2023-03-03T13:48:44;4.80;1.00
5842;DHT22;2947;52.276;9.946;2023-03-03T13:57:12;5.10;99.90
5842;DHT22;2947;52.276;9.946;2023-03-03T14:05:56;5.10;99.90
5842;DHT22;2947;52.276;9.946;2023-03-03T14:17:14;5.10;1.00
5842;DHT22;2947;52.276;9.946;2023-03-03T14:19:46;5.30;99.90
5842;DHT22;2947;52.276;9.946;2023-03-03T14:25:16;5.30;1.00
5842;DHT22;2947;52.276;9.946;2023-03-03T14:35:51;5.30;75.20
5842;DHT22;2947;52.276;9.946;2023-03-03T14:43:56;5.20;1.00
5842;DHT22;2947;52.276;9.946;2023-03-03T14:48:54;5.30;99.90
5842;DHT22;2947;52.276;9.946;2023-03-03T14:51:25;5.10;1.00
5842;DHT22;2947;52.276;9.946;2023-03-03T14:53:54;5.00;1.00
5842;DHT22;2947;52.276;9.946;2023-03-03T14:56:24;5.00;15.40
5842;DHT22;2947;52.276;9.946;2023-03-03T14:58:52;4.80;1.00
5842;DHT22;2947;52.276;9.946;2023-03-03T15:01:30;4.90;1.00
5842;DHT22;2947;52.276;9.946;2023-03-03T15:04:25;4.80;1.00
5842;DHT22;2947;52.276;9.946;2023-03-03T15:06:54;4.80;99.90
5842;DHT22;2947;52.276;9.946;2023-03-03T15:09:31;4.90;99.90
5842;DHT22;2947;52.276;9.946;2023-03-03T15:14:45;5.00;1.00
5842;DHT22;2947;52.276;9.946;2023-03-03T15:23:28;5.00;1.00
5842;DHT22;2947;52.276;9.946;2023-03-03T15:33:30;4.80;1.00
5842;DHT22;2947;52.276;9.946;2023-03-03T15:39:24;4.90;99.90
5842;DHT22;2947;52.276;9.946;2023-03-03T15:42:13;4.80;99.90
5842;DHT22;2947;52.276;9.946;2023-03-03T15:56:52;4.80;1.00
5842;DHT22;2947;52.276;9.946;2023-03-03T16:02:22;4.80;99.90
5842;DHT22;2947;52.276;9.946;2023-03-03T16:05:13;4.80;99.90
5842;DHT22;2947;52.276;9.946;2023-03-03T16:08:09;4.80;1.00
5842;DHT22;2947;52.276;9.946;2023-03-03T16:10:58;4.80;1.00
5842;DHT22;2947;52.276;9.946;2023-03-03T16:19:47;4.70;1.00
5842;DHT22;2947;52.276;9.946;2023-03-03T16:26:01;4.70;1.00
5842;DHT22;2947;52.276;9.946;2023-03-03T16:29:22;4.60;1.00
5842;DHT22;2947;52.276;9.946;2023-03-03T16:31:39;4.60;99.90
5842;DHT22;2947;52.276;9.946;2023-03-03T16:34:24;4.40;99.90
5842;DHT22;2947;52.276;9.946;2023-03-03T16:40:22;4.30;19.50
5842;DHT22;2947;52.276;9.946;2023-03-03T16:45:39;4.20;24.70
5842;DHT22;2947;52.276;9.946;2023-03-03T16:48:30;4.20;1.00
5842;DHT22;2947;52.276;9.946;2023-03-03T16:56:36;4.00;99.90
5842;DHT22;2947;52.276;9.946;2023-03-03T16:59:44;4.00;99.90
5842;DHT22;2947;52.276;9.946;2023-03-03T17:02:48;4.00;99.90
5842;DHT22;2947;52.276;9.946;2023-03-03T17:17:00;3.60;16.10
5842;DHT22;2947;52.276;9.946;2023-03-03T17:19:53;3.60;99.90
5842;DHT22;2947;52.276;9.946;2023-03-03T17:25:22;3.40;99.90
5842;DHT22;2947;52.276;9.946;2023-03-03T17:31:07;3.30;99.90
5842;DHT22;2947;52.276;9.946;2023-03-03T17:34:15;3.20;99.90
5842;DHT22;2947;52.276;9.946;2023-03-03T17:40:07;3.10;1.00
5842;DHT22;2947;52.276;9.946;2023-03-03T17:42:49;3.00;1.00
5842;DHT22;2947;52.276;9.946;2023-03-03T17:45:39;3.00;1.00
5842;DHT22;2947;52.276;9.946;2023-03-03T17:54:35;2.90;1.00
5842;DHT22;2947;52.276;9.946;2023-03-03T18:07:14;2.90;1.00
5842;DHT22;2947;52.276;9.946;2023-03-03T18:15:35;3.00;1.00
5842;DHT22;2947;52.276;9.946;2023-03-03T18:18:20;3.00;1.00
5842;DHT22;2947;52.276;9.946;2023-03-03T18:23:48;3.00;1.00
5842;DHT22;2947;52.276;9.946;2023-03-03T18:26:37;3.10;1.00
5842;DHT22;2947;52.276;9.946;2023-03-03T18:34:43;3.10;1.00
5842;DHT22;2947;52.276;9.946;2023-03-03T18:42:39;3.20;1.00
5842;DHT22;2947;52.276;9.946;2023-03-03T18:48:09;3.20;1.00
5842;DHT22;2947;52.276;9.946;2023-03-03T18:50:41;3.20;1.00
5842;DHT22;2947;52.276;9.946;2023-03-03T18:53:28;3.30;1.00
5842;DHT22;2947;52.276;9.946;2023-03-03T18:56:00;3.30;1.00
5842;DHT22;2947;52.276;9.946;2023-03-03T18:58:35;3.30;1.00
5842;DHT22;2947;52.276;9.946;2023-03-03T19:04:17;3.30;1.00
5842;DHT22;2947;52.276;9.946;2023-03-03T19:09:18;3.30;1.00
5842;DHT22;2947;52.276;9.946;2023-03-03T19:11:50;3.30;1.00
5842;DHT22;2947;52.276;9.946;2023-03-03T19:16:52;3.30;1.00
5842;DHT22;2947;52.276;9.946;2023-03-03T19:19:24;3.30;1.00
5842;DHT22;2947;52.276;9.946;2023-03-03T19:22:24;3.30;1.00
5842;DHT22;2947;52.276;9.946;2023-03-03T19:25:14;3.40;1.00
5842;DHT22;2947;52.276;9.946;2023-03-03T19:28:05;3.30;1.00
5842;DHT22;2947;52.276;9.946;2023-03-03T19:33:34;3.30;1.00
5842;DHT22;2947;52.276;9.946;2023-03-03T19:36:17;3.30;1.00
5842;DHT22;2947;52.276;9.946;2023-03-03T19:38:59;3.30;1.00
5842;DHT22;2947;52.276;9.946;2023-03-03T19:41:41;3.40;1.00
5842;DHT22;2947;52.276;9.946;2023-03-03T19:53:13;3.40;1.00
5842;DHT22;2947;52.276;9.946;2023-03-03T19:55:56;3.40;1.00
5842;DHT22;2947;52.276;9.946;2023-03-03T19:58:45;3.40;1.00
5842;DHT22;2947;52.276;9.946;2023-03-03T20:07:54;3.40;1.00
5842;DHT22;2947;52.276;9.946;2023-03-03T20:19:44;3.50;1.00
5842;DHT22;2947;52.276;9.946;2023-03-03T20:22:39;3.50;1.00
5842;DHT22;2947;52.276;9.946;2023-03-03T20:26:20;3.60;1.00
5842;DHT22;2947;52.276;9.946;2023-03-03T20:31:21;3.60;1.00
5842;DHT22;2947;52.276;9.946;2023-03-03T20:34:05;3.70;1.00
5842;DHT22;2947;52.276;9.946;2023-03-03T20:37:12;3.70;1.00
5842;DHT22;2947;52.276;9.946;2023-03-03T20:39:57;3.70;1.00
5842;DHT22;2947;52.276;9.946;2023-03-03T20:42:49;3.70;1.00
5842;DHT22;2947;52.276;9.946;2023-03-03T20:48:39;3.80;1.00
5842;DHT22;2947;52.276;9.946;2023-03-03T20:54:13;3.80;1.00
5842;DHT22;2947;52.276;9.946;2023-03-03T20:57:22;3.80;1.00
5842;DHT22;2947;52.276;9.946;2023-03-03T20:59:58;3.80;1.00
5842;DHT22;2947;52.276;9.946;2023-03-03T21:05:17;3.90;1.00
5842;DHT22;2947;52.276;9.946;2023-03-03T21:07:57;3.90;1.00
5842;DHT22;2947;52.276;9.946;2023-03-03T21:10:32;3.90;1.00
5842;DHT22;2947;52.276;9.946;2023-03-03T21:16:11;3.90;1.00
5842;DHT22;2947;52.276;9.946;2023-03-03T21:19:22;3.90;1.00
5842;DHT22;2947;52.276;9.946;2023-03-03T21:21:50;3.90;1.00
5842;DHT22;2947;52.276;9.946;2023-03-03T21:25:06;3.90;1.00
5842;DHT22;2947;52.276;9.946;2023-03-03T21:27:34;3.90;1.00
5842;DHT22;2947;52.276;9.946;2023-03-03T21:30:11;3.90;1.00
5842;DHT22;2947;52.276;9.946;2023-03-03T21:32:43;3.90;1.00
5842;DHT22;2947;52.276;9.946;2023-03-03T21:35:18;3.90;1.00
5842;DHT22;2947;52.276;9.946;2023-03-03T21:40:22;3.90;1.00
5842;DHT22;2947;52.276;9.946;2023-03-03T21:42:51;3.90;1.00
5842;DHT22;2947;52.276;9.946;2023-03-03T21:45:18;4.00;1.00
5842;DHT22;2947;52.276;9.946;2023-03-03T21:47:48;4.00;1.00
5842;DHT22;2947;52.276;9.946;2023-03-03T21:50:16;4.00;1.00
5842;DHT22;2947;52.276;9.946;2023-03-03T21:52:44;4.00;1.00
5842;DHT22;2947;52.276;9.946;2023-03-03T21:55:10;4.10;1.00
5842;DHT22;2947;52.276;9.946;2023-03-03T21:57:36;4.10;1.00
5842;DHT22;2947;52.276;9.946;2023-03-03T22:00:06;4.10;1.00
5842;DHT22;2947;52.276;9.946;2023-03-03T22:02:33;4.10;99.90
5842;DHT22;2947;52.276;9.946;2023-03-03T22:04:59;4.10;99.90
5842;DHT22;2947;52.276;9.946;2023-03-03T22:07:27;4.10;99.90
5842;DHT22;2947;52.276;9.946;2023-03-03T22:09:53;4.10;99.90
5842;DHT22;2947;52.276;9.946;2023-03-03T22:12:18;4.20;99.90
5842;DHT22;2947;52.276;9.946;2023-03-03T22:14:44;4.10;99.90
5842;DHT22;2947;52.276;9.946;2023-03-03T22:17:10;4.10;99.90
5842;DHT22;2947;52.276;9.946;2023-03-03T22:19:36;4.10;99.90
5842;DHT22;2947;52.276;9.946;2023-03-03T22:22:03;4.20;44.80
5842;DHT22;2947;52.276;9.946;2023-03-03T22:24:29;4.20;1.00
5842;DHT22;2947;52.276;9.946;2023-03-03T22:26:55;4.20;1.00
5842;DHT22;2947;52.276;9.946;2023-03-03T22:29:20;4.20;1.00
5842;DHT22;2947;52.276;9.946;2023-03-03T22:31:48;4.20;1.00
5842;DHT22;2947;52.276;9.946;2023-03-03T22:34:14;4.20;1.00
5842;DHT22;2947;52.276;9.946;2023-03-03T22:36:40;4.20;1.00
5842;DHT22;2947;52.276;9.946;2023-03-03T22:39:05;4.20;1.00
5842;DHT22;2947;52.276;9.946;2023-03-03T22:41:31;4.20;1.00
5842;DHT22;2947;52.276;9.946;2023-03-03T22:43:57;4.20;1.00
5842;DHT22;2947;52.276;9.946;2023-03-03T22:46:23;4.20;1.00
5842;DHT22;2947;52.276;9.946;2023-03-03T22:48:48;4.20;1.00
5842;DHT22;2947;52.276;9.946;2023-03-03T22:51:14;4.20;1.00
5842;DHT22;2947;52.276;9.946;2023-03-03T22:53:40;4.20;1.00
5842;DHT22;2947;52.276;9.946;2023-03-03T22:56:06;4.20;1.00
5842;DHT22;2947;52.276;9.946;2023-03-03T22:58:31;4.10;1.00
5842;DHT22;2947;52.276;9.946;2023-03-03T23:00:57;4.10;1.00
5842;DHT22;2947;52.276;9.946;2023-03-03T23:03:23;4.10;1.00
5842;DHT22;2947;52.276;9.946;2023-03-03T23:05:48;4.10;1.00
5842;DHT22;2947;52.276;9.946;2023-03-03T23:08:16;4.00;1.00
5842;DHT22;2947;52.276;9.946;2023-03-03T23:10:43;4.00;1.00
5842;DHT22;2947;52.276;9.946;2023-03-03T23:13:09;4.00;47.90
5842;DHT22;2947;52.276;9.946;2023-03-03T23:15:35;4.00;97.20